sensor_id;sensor_type;location;lat;lon;timestamp;P1;durP1;ratioP1;P2;durP2;ratioP2
1428;SDS011;708;51.442;7.016;2022-07-23T00:00:09;9.75;;;8.02;;
1428;SDS011;708;51.442;7.016;2022-07-23T00:02:38;8.02;;;7.22;;
1428;SDS011;708;51.442;7.016;2022-07-23T00:05:07;9.38;;;7.75;;
1428;SDS011;708;51.442;7.016;2022-07-23T00:07:35;12.57;;;9.32;;
1428;SDS011;708;51.442;7.016;2022-07-23T00:10:02;13.23;;;8.27;;
1428;SDS011;708;51.442;7.016;2022-07-23T00:12:29;12.05;;;8.45;;
1428;SDS011;708;51.442;7.016;2022-07-23T00:14:56;10.80;;;8.15;;
1428;SDS011;708;51.442;7.016;2022-07-23T00:17:25;9.90;;;8.88;;
1428;SDS011;708;51.442;7.016;2022-07-23T00:19:53;8.55;;;7.65;;
1428;SDS011;708;51.442;7.016;2022-07-23T00:22:20;11.82;;;8.73;;
1428;SDS011;708;51.442;7.016;2022-07-23T00:24:47;10.88;;;8.38;;
1428;SDS011;708;51.442;7.016;2022-07-23T00:27:14;11.18;;;8.25;;
1428;SDS011;708;51.442;7.016;2022-07-23T00:29:41;11.07;;;8.70;;
1428;SDS011;708;51.442;7.016;2022-07-23T00:32:08;10.50;;;9.40;;
1428;SDS011;708;51.442;7.016;2022-07-23T00:34:34;12.57;;;9.75;;
1428;SDS011;708;51.442;7.016;2022-07-23T00:37:03;13.23;;;10.77;;
1428;SDS011;708;51.442;7.016;2022-07-23T00:39:30;13.05;;;11.70;;
1428;SDS011;708;51.442;7.016;2022-07-23T00:41:56;12.65;;;11.00;;
1428;SDS011;708;51.442;7.016;2022-07-23T00:44:24;13.05;;;11.05;;
1428;SDS011;708;51.442;7.016;2022-07-23T00:46:52;16.63;;;14.40;;
1428;SDS011;708;51.442;7.016;2022-07-23T00:49:20;13.27;;;11.75;;
1428;SDS011;708;51.442;7.016;2022-07-23T00:51:47;14.80;;;11.82;;
1428;SDS011;708;51.442;7.016;2022-07-23T00:54:16;14.27;;;12.75;;
1428;SDS011;708;51.442;7.016;2022-07-23T00:56:45;13.98;;;11.80;;
1428;SDS011;708;51.442;7.016;2022-07-23T00:59:12;16.85;;;12.68;;
1428;SDS011;708;51.442;7.016;2022-07-23T01:01:40;18.80;;;12.98;;
1428;SDS011;708;51.442;7.016;2022-07-23T01:04:08;15.98;;;14.32;;
1428;SDS011;708;51.442;7.016;2022-07-23T01:06:36;17.77;;;14.52;;
1428;SDS011;708;51.442;7.016;2022-07-23T01:09:05;17.98;;;14.38;;
1428;SDS011;708;51.442;7.016;2022-07-23T01:11:34;17.10;;;14.65;;
1428;SDS011;708;51.442;7.016;2022-07-23T01:14:07;16.65;;;14.23;;
1428;SDS011;708;51.442;7.016;2022-07-23T01:16:38;18.55;;;15.43;;
1428;SDS011;708;51.442;7.016;2022-07-23T01:19:05;14.80;;;11.73;;
1428;SDS011;708;51.442;7.016;2022-07-23T01:21:34;14.65;;;11.32;;
1428;SDS011;708;51.442;7.016;2022-07-23T01:24:04;15.00;;;12.70;;
1428;SDS011;708;51.442;7.016;2022-07-23T01:26:32;20.73;;;16.45;;
1428;SDS011;708;51.442;7.016;2022-07-23T01:28:58;19.10;;;14.70;;
1428;SDS011;708;51.442;7.016;2022-07-23T01:31:25;16.88;;;14.73;;
1428;SDS011;708;51.442;7.016;2022-07-23T01:33:52;20.25;;;15.10;;
1428;SDS011;708;51.442;7.016;2022-07-23T01:36:19;17.42;;;13.20;;
1428;SDS011;708;51.442;7.016;2022-07-23T01:38:46;17.10;;;14.20;;
1428;SDS011;708;51.442;7.016;2022-07-23T01:41:15;18.13;;;14.10;;
1428;SDS011;708;51.442;7.016;2022-07-23T01:43:42;14.88;;;13.30;;
1428;SDS011;708;51.442;7.016;2022-07-23T01:46:09;19.75;;;15.23;;
1428;SDS011;708;51.442;7.016;2022-07-23T01:48:36;16.77;;;14.52;;
1428;SDS011;708;51.442;7.016;2022-07-23T01:51:03;18.60;;;14.63;;
1428;SDS011;708;51.442;7.016;2022-07-23T01:53:30;15.93;;;13.50;;
1428;SDS011;708;51.442;7.016;2022-07-23T01:55:57;17.77;;;14.07;;
1428;SDS011;708;51.442;7.016;2022-07-23T01:58:25;19.17;;;15.02;;
1428;SDS011;708;51.442;7.016;2022-07-23T02:00:53;18.35;;;14.50;;
1428;SDS011;708;51.442;7.016;2022-07-23T02:03:20;17.08;;;14.82;;
1428;SDS011;708;51.442;7.016;2022-07-23T02:05:47;20.00;;;13.77;;
1428;SDS011;708;51.442;7.016;2022-07-23T02:08:15;14.15;;;11.77;;
1428;SDS011;708;51.442;7.016;2022-07-23T02:10:42;16.77;;;13.80;;
1428;SDS011;708;51.442;7.016;2022-07-23T02:13:09;14.93;;;13.52;;
1428;SDS011;708;51.442;7.016;2022-07-23T02:15:39;11.13;;;8.90;;
1428;SDS011;708;51.442;7.016;2022-07-23T02:18:06;17.48;;;12.63;;
1428;SDS011;708;51.442;7.016;2022-07-23T02:20:34;15.25;;;12.25;;
1428;SDS011;708;51.442;7.016;2022-07-23T02:23:03;15.70;;;12.73;;
1428;SDS011;708;51.442;7.016;2022-07-23T02:25:30;17.67;;;15.82;;
1428;SDS011;708;51.442;7.016;2022-07-23T02:27:57;14.07;;;12.57;;
1428;SDS011;708;51.442;7.016;2022-07-23T02:30:24;15.27;;;13.68;;
1428;SDS011;708;51.442;7.016;2022-07-23T02:32:52;19.92;;;13.63;;
1428;SDS011;708;51.442;7.016;2022-07-23T02:35:19;13.98;;;12.15;;
1428;SDS011;708;51.442;7.016;2022-07-23T02:37:46;15.95;;;12.73;;
1428;SDS011;708;51.442;7.016;2022-07-23T02:40:13;11.27;;;8.00;;
1428;SDS011;708;51.442;7.016;2022-07-23T02:42:39;12.30;;;10.18;;
1428;SDS011;708;51.442;7.016;2022-07-23T02:45:07;14.82;;;10.85;;
1428;SDS011;708;51.442;7.016;2022-07-23T02:47:34;16.35;;;12.75;;
1428;SDS011;708;51.442;7.016;2022-07-23T02:50:03;12.93;;;11.40;;
1428;SDS011;708;51.442;7.016;2022-07-23T02:52:30;10.25;;;8.57;;
1428;SDS011;708;51.442;7.016;2022-07-23T02:54:58;12.70;;;10.60;;
1428;SDS011;708;51.442;7.016;2022-07-23T02:57:25;15.63;;;12.90;;
1428;SDS011;708;51.442;7.016;2022-07-23T02:59:51;12.55;;;11.20;;
1428;SDS011;708;51.442;7.016;2022-07-23T03:02:18;10.65;;;9.55;;
1428;SDS011;708;51.442;7.016;2022-07-23T03:04:45;13.63;;;12.13;;
1428;SDS011;708;51.442;7.016;2022-07-23T03:07:13;12.15;;;10.85;;
1428;SDS011;708;51.442;7.016;2022-07-23T03:09:40;18.90;;;12.32;;
1428;SDS011;708;51.442;7.016;2022-07-23T03:12:07;13.50;;;11.40;;
1428;SDS011;708;51.442;7.016;2022-07-23T03:14:34;15.57;;;13.48;;
1428;SDS011;708;51.442;7.016;2022-07-23T03:17:01;20.92;;;15.60;;
1428;SDS011;708;51.442;7.016;2022-07-23T03:19:28;17.35;;;14.05;;
1428;SDS011;708;51.442;7.016;2022-07-23T03:21:55;24.15;;;16.67;;
1428;SDS011;708;51.442;7.016;2022-07-23T03:24:23;19.90;;;15.02;;
1428;SDS011;708;51.442;7.016;2022-07-23T03:27:10;19.05;;;15.57;;
1428;SDS011;708;51.442;7.016;2022-07-23T03:29:37;18.20;;;14.75;;
1428;SDS011;708;51.442;7.016;2022-07-23T03:32:04;20.70;;;15.38;;
1428;SDS011;708;51.442;7.016;2022-07-23T03:34:31;22.20;;;17.55;;
1428;SDS011;708;51.442;7.016;2022-07-23T03:36:58;19.20;;;14.65;;
1428;SDS011;708;51.442;7.016;2022-07-23T03:39:26;19.45;;;16.25;;
1428;SDS011;708;51.442;7.016;2022-07-23T03:41:53;19.20;;;14.63;;
1428;SDS011;708;51.442;7.016;2022-07-23T03:44:20;20.55;;;16.25;;
1428;SDS011;708;51.442;7.016;2022-07-23T03:46:47;16.20;;;12.60;;
1428;SDS011;708;51.442;7.016;2022-07-23T03:49:14;27.15;;;16.00;;
1428;SDS011;708;51.442;7.016;2022-07-23T03:51:40;20.38;;;15.25;;
1428;SDS011;708;51.442;7.016;2022-07-23T03:54:07;15.40;;;12.98;;
1428;SDS011;708;51.442;7.016;2022-07-23T03:56:35;18.83;;;13.93;;
1428;SDS011;708;51.442;7.016;2022-07-23T03:59:02;15.32;;;13.70;;
1428;SDS011;708;51.442;7.016;2022-07-23T04:01:29;20.83;;;12.45;;
1428;SDS011;708;51.442;7.016;2022-07-23T04:03:56;15.93;;;11.80;;
1428;SDS011;708;51.442;7.016;2022-07-23T04:06:23;17.23;;;14.45;;
1428;SDS011;708;51.442;7.016;2022-07-23T04:08:50;15.00;;;12.65;;
1428;SDS011;708;51.442;7.016;2022-07-23T04:11:17;21.02;;;17.00;;
1428;SDS011;708;51.442;7.016;2022-07-23T04:13:46;20.92;;;16.20;;
1428;SDS011;708;51.442;7.016;2022-07-23T04:16:13;24.60;;;16.27;;
1428;SDS011;708;51.442;7.016;2022-07-23T04:18:39;20.40;;;18.00;;
1428;SDS011;708;51.442;7.016;2022-07-23T04:21:06;17.23;;;14.52;;
1428;SDS011;708;51.442;7.016;2022-07-23T04:23:33;20.15;;;16.67;;
1428;SDS011;708;51.442;7.016;2022-07-23T04:26:00;18.48;;;14.40;;
1428;SDS011;708;51.442;7.016;2022-07-23T04:28:27;16.00;;;13.52;;
1428;SDS011;708;51.442;7.016;2022-07-23T04:30:56;10.90;;;9.75;;
1428;SDS011;708;51.442;7.016;2022-07-23T04:33:23;18.00;;;14.15;;
1428;SDS011;708;51.442;7.016;2022-07-23T04:35:50;14.95;;;13.45;;
1428;SDS011;708;51.442;7.016;2022-07-23T04:38:17;16.98;;;13.13;;
1428;SDS011;708;51.442;7.016;2022-07-23T04:40:44;18.67;;;14.35;;
1428;SDS011;708;51.442;7.016;2022-07-23T04:43:11;16.42;;;14.63;;
1428;SDS011;708;51.442;7.016;2022-07-23T04:45:37;15.20;;;12.90;;
1428;SDS011;708;51.442;7.016;2022-07-23T04:48:06;15.43;;;13.38;;
1428;SDS011;708;51.442;7.016;2022-07-23T04:50:32;18.02;;;15.15;;
1428;SDS011;708;51.442;7.016;2022-07-23T04:52:59;16.20;;;14.57;;
1428;SDS011;708;51.442;7.016;2022-07-23T04:55:26;16.58;;;11.88;;
1428;SDS011;708;51.442;7.016;2022-07-23T04:57:53;13.35;;;12.00;;
1428;SDS011;708;51.442;7.016;2022-07-23T05:00:22;30.23;;;12.00;;
1428;SDS011;708;51.442;7.016;2022-07-23T05:02:49;12.10;;;10.90;;
1428;SDS011;708;51.442;7.016;2022-07-23T05:05:17;14.73;;;12.17;;
1428;SDS011;708;51.442;7.016;2022-07-23T05:07:44;19.30;;;12.60;;
1428;SDS011;708;51.442;7.016;2022-07-23T05:10:11;12.00;;;10.47;;
1428;SDS011;708;51.442;7.016;2022-07-23T05:12:38;11.23;;;10.10;;
1428;SDS011;708;51.442;7.016;2022-07-23T05:15:05;11.93;;;10.77;;
1428;SDS011;708;51.442;7.016;2022-07-23T05:17:32;13.07;;;11.70;;
1428;SDS011;708;51.442;7.016;2022-07-23T05:19:59;13.20;;;10.40;;
1428;SDS011;708;51.442;7.016;2022-07-23T05:22:27;12.87;;;10.97;;
1428;SDS011;708;51.442;7.016;2022-07-23T05:24:54;12.20;;;10.83;;
1428;SDS011;708;51.442;7.016;2022-07-23T05:27:21;13.40;;;11.23;;
1428;SDS011;708;51.442;7.016;2022-07-23T05:29:47;11.37;;;9.20;;
1428;SDS011;708;51.442;7.016;2022-07-23T05:32:14;13.50;;;11.07;;
1428;SDS011;708;51.442;7.016;2022-07-23T05:34:41;12.07;;;10.77;;
1428;SDS011;708;51.442;7.016;2022-07-23T05:37:08;12.80;;;11.50;;
1428;SDS011;708;51.442;7.016;2022-07-23T05:39:36;12.33;;;10.30;;
1428;SDS011;708;51.442;7.016;2022-07-23T05:42:03;10.20;;;7.97;;
1428;SDS011;708;51.442;7.016;2022-07-23T05:44:31;12.80;;;11.60;;
1428;SDS011;708;51.442;7.016;2022-07-23T05:47:00;11.97;;;10.60;;
1428;SDS011;708;51.442;7.016;2022-07-23T05:49:27;10.37;;;9.37;;
1428;SDS011;708;51.442;7.016;2022-07-23T05:51:54;12.80;;;11.50;;
1428;SDS011;708;51.442;7.016;2022-07-23T05:54:21;12.23;;;11.10;;
1428;SDS011;708;51.442;7.016;2022-07-23T05:56:49;13.33;;;12.13;;
1428;SDS011;708;51.442;7.016;2022-07-23T05:59:17;12.40;;;11.10;;
1428;SDS011;708;51.442;7.016;2022-07-23T06:01:47;13.70;;;12.40;;
1428;SDS011;708;51.442;7.016;2022-07-23T06:04:29;14.60;;;12.10;;
1428;SDS011;708;51.442;7.016;2022-07-23T06:06:56;14.00;;;12.60;;
1428;SDS011;708;51.442;7.016;2022-07-23T06:09:23;13.60;;;12.30;;
1428;SDS011;708;51.442;7.016;2022-07-23T06:11:51;10.40;;;9.40;;
1428;SDS011;708;51.442;7.016;2022-07-23T06:14:18;14.23;;;12.77;;
1428;SDS011;708;51.442;7.016;2022-07-23T06:16:45;7.27;;;6.57;;
1428;SDS011;708;51.442;7.016;2022-07-23T06:19:12;15.40;;;14.00;;
1428;SDS011;708;51.442;7.016;2022-07-23T06:21:38;15.33;;;12.73;;
1428;SDS011;708;51.442;7.016;2022-07-23T06:24:05;15.30;;;12.00;;
1428;SDS011;708;51.442;7.016;2022-07-23T06:26:32;12.90;;;11.60;;
1428;SDS011;708;51.442;7.016;2022-07-23T06:29:01;12.87;;;11.63;;
1428;SDS011;708;51.442;7.016;2022-07-23T06:31:27;14.83;;;13.27;;
1428;SDS011;708;51.442;7.016;2022-07-23T06:33:54;10.77;;;9.77;;
1428;SDS011;708;51.442;7.016;2022-07-23T06:36:21;11.60;;;10.00;;
1428;SDS011;708;51.442;7.016;2022-07-23T06:38:49;14.37;;;12.90;;
1428;SDS011;708;51.442;7.016;2022-07-23T06:41:16;14.00;;;12.60;;
1428;SDS011;708;51.442;7.016;2022-07-23T06:43:43;14.37;;;12.97;;
1428;SDS011;708;51.442;7.016;2022-07-23T06:46:11;13.20;;;11.53;;
1428;SDS011;708;51.442;7.016;2022-07-23T06:48:37;15.60;;;14.03;;
1428;SDS011;708;51.442;7.016;2022-07-23T06:51:04;14.90;;;13.33;;
1428;SDS011;708;51.442;7.016;2022-07-23T06:53:32;15.20;;;13.63;;
1428;SDS011;708;51.442;7.016;2022-07-23T06:55:58;15.77;;;14.23;;
1428;SDS011;708;51.442;7.016;2022-07-23T06:58:25;14.83;;;13.30;;
1428;SDS011;708;51.442;7.016;2022-07-23T07:00:52;12.97;;;11.67;;
1428;SDS011;708;51.442;7.016;2022-07-23T07:03:20;13.57;;;11.27;;
1428;SDS011;708;51.442;7.016;2022-07-23T07:05:47;15.67;;;10.83;;
1428;SDS011;708;51.442;7.016;2022-07-23T07:08:14;12.07;;;10.20;;
1428;SDS011;708;51.442;7.016;2022-07-23T07:10:41;14.27;;;12.73;;
1428;SDS011;708;51.442;7.016;2022-07-23T07:13:08;13.33;;;12.03;;
1428;SDS011;708;51.442;7.016;2022-07-23T07:15:35;13.07;;;11.33;;
1428;SDS011;708;51.442;7.016;2022-07-23T07:18:02;14.93;;;13.43;;
1428;SDS011;708;51.442;7.016;2022-07-23T07:20:30;16.37;;;13.60;;
1428;SDS011;708;51.442;7.016;2022-07-23T07:22:57;16.67;;;15.03;;
1428;SDS011;708;51.442;7.016;2022-07-23T07:25:24;15.60;;;14.03;;
1428;SDS011;708;51.442;7.016;2022-07-23T07:27:51;14.60;;;13.10;;
1428;SDS011;708;51.442;7.016;2022-07-23T07:30:18;11.43;;;10.20;;
1428;SDS011;708;51.442;7.016;2022-07-23T07:32:44;15.33;;;13.73;;
1428;SDS011;708;51.442;7.016;2022-07-23T07:35:11;9.80;;;8.90;;
1428;SDS011;708;51.442;7.016;2022-07-23T07:37:40;15.27;;;13.77;;
1428;SDS011;708;51.442;7.016;2022-07-23T07:40:07;13.30;;;12.10;;
1428;SDS011;708;51.442;7.016;2022-07-23T07:42:35;15.63;;;12.83;;
1428;SDS011;708;51.442;7.016;2022-07-23T07:45:10;13.70;;;12.40;;
1428;SDS011;708;51.442;7.016;2022-07-23T07:47:38;13.67;;;12.33;;
1428;SDS011;708;51.442;7.016;2022-07-23T07:50:05;12.27;;;11.07;;
1428;SDS011;708;51.442;7.016;2022-07-23T07:52:33;15.80;;;13.60;;
1428;SDS011;708;51.442;7.016;2022-07-23T07:55:03;10.20;;;9.20;;
1428;SDS011;708;51.442;7.016;2022-07-23T07:57:31;12.17;;;10.97;;
1428;SDS011;708;51.442;7.016;2022-07-23T07:59:58;8.40;;;7.50;;
1428;SDS011;708;51.442;7.016;2022-07-23T08:02:25;12.17;;;10.97;;
1428;SDS011;708;51.442;7.016;2022-07-23T08:04:52;12.87;;;9.20;;
1428;SDS011;708;51.442;7.016;2022-07-23T08:07:19;12.27;;;11.07;;
1428;SDS011;708;51.442;7.016;2022-07-23T08:09:46;11.50;;;6.93;;
1428;SDS011;708;51.442;7.016;2022-07-23T08:12:14;13.50;;;12.10;;
1428;SDS011;708;51.442;7.016;2022-07-23T08:14:41;11.90;;;10.70;;
1428;SDS011;708;51.442;7.016;2022-07-23T08:17:09;12.53;;;11.33;;
1428;SDS011;708;51.442;7.016;2022-07-23T08:19:36;8.20;;;7.40;;
1428;SDS011;708;51.442;7.016;2022-07-23T08:22:03;9.80;;;8.80;;
1428;SDS011;708;51.442;7.016;2022-07-23T08:24:30;8.30;;;7.50;;
1428;SDS011;708;51.442;7.016;2022-07-23T08:26:56;7.00;;;6.30;;
1428;SDS011;708;51.442;7.016;2022-07-23T08:29:25;5.83;;;5.23;;
1428;SDS011;708;51.442;7.016;2022-07-23T08:31:52;7.43;;;6.10;;
1428;SDS011;708;51.442;7.016;2022-07-23T08:34:19;6.70;;;4.73;;
1428;SDS011;708;51.442;7.016;2022-07-23T08:36:46;6.30;;;5.43;;
1428;SDS011;708;51.442;7.016;2022-07-23T08:39:13;6.67;;;5.97;;
1428;SDS011;708;51.442;7.016;2022-07-23T08:41:40;4.83;;;4.40;;
1428;SDS011;708;51.442;7.016;2022-07-23T08:44:07;6.23;;;5.73;;
1428;SDS011;708;51.442;7.016;2022-07-23T08:46:36;6.67;;;5.93;;
1428;SDS011;708;51.442;7.016;2022-07-23T08:49:05;5.63;;;5.13;;
1428;SDS011;708;51.442;7.016;2022-07-23T08:51:33;8.50;;;4.60;;
1428;SDS011;708;51.442;7.016;2022-07-23T08:54:00;3.80;;;3.00;;
1428;SDS011;708;51.442;7.016;2022-07-23T08:56:27;4.40;;;3.67;;
1428;SDS011;708;51.442;7.016;2022-07-23T08:58:54;4.00;;;3.60;;
1428;SDS011;708;51.442;7.016;2022-07-23T09:01:21;5.60;;;4.30;;
1428;SDS011;708;51.442;7.016;2022-07-23T09:03:49;5.23;;;3.73;;
1428;SDS011;708;51.442;7.016;2022-07-23T09:06:16;5.30;;;4.00;;
1428;SDS011;708;51.442;7.016;2022-07-23T09:08:43;4.70;;;3.37;;
1428;SDS011;708;51.442;7.016;2022-07-23T09:11:11;4.00;;;2.77;;
1428;SDS011;708;51.442;7.016;2022-07-23T09:13:41;6.17;;;3.33;;
1428;SDS011;708;51.442;7.016;2022-07-23T09:16:13;6.83;;;2.93;;
1428;SDS011;708;51.442;7.016;2022-07-23T09:18:42;3.40;;;2.90;;
1428;SDS011;708;51.442;7.016;2022-07-23T09:21:16;2.93;;;2.40;;
1428;SDS011;708;51.442;7.016;2022-07-23T09:23:45;4.00;;;3.20;;
1428;SDS011;708;51.442;7.016;2022-07-23T09:26:17;4.80;;;3.40;;
1428;SDS011;708;51.442;7.016;2022-07-23T09:28:57;3.43;;;2.27;;
1428;SDS011;708;51.442;7.016;2022-07-23T09:31:30;3.23;;;2.40;;
1428;SDS011;708;51.442;7.016;2022-07-23T09:34:06;3.77;;;2.60;;
1428;SDS011;708;51.442;7.016;2022-07-23T09:36:35;4.50;;;2.77;;
1428;SDS011;708;51.442;7.016;2022-07-23T09:39:02;3.20;;;2.90;;
1428;SDS011;708;51.442;7.016;2022-07-23T09:41:34;3.43;;;2.93;;
1428;SDS011;708;51.442;7.016;2022-07-23T09:44:06;3.50;;;2.83;;
1428;SDS011;708;51.442;7.016;2022-07-23T09:46:46;3.20;;;1.70;;
1428;SDS011;708;51.442;7.016;2022-07-23T09:49:15;4.93;;;3.40;;
1428;SDS011;708;51.442;7.016;2022-07-23T09:51:52;3.30;;;2.43;;
1428;SDS011;708;51.442;7.016;2022-07-23T09:54:23;4.20;;;2.63;;
1428;SDS011;708;51.442;7.016;2022-07-23T09:56:57;3.87;;;2.60;;
1428;SDS011;708;51.442;7.016;2022-07-23T09:59:26;4.90;;;3.00;;
1428;SDS011;708;51.442;7.016;2022-07-23T10:01:53;4.73;;;3.10;;
1428;SDS011;708;51.442;7.016;2022-07-23T10:04:22;4.27;;;2.97;;
1428;SDS011;708;51.442;7.016;2022-07-23T10:06:52;3.20;;;1.60;;
1428;SDS011;708;51.442;7.016;2022-07-23T10:09:22;2.80;;;2.30;;
1428;SDS011;708;51.442;7.016;2022-07-23T10:11:50;3.70;;;2.70;;
1428;SDS011;708;51.442;7.016;2022-07-23T10:14:21;4.73;;;3.20;;
1428;SDS011;708;51.442;7.016;2022-07-23T10:16:47;4.40;;;2.93;;
1428;SDS011;708;51.442;7.016;2022-07-23T10:19:14;4.60;;;2.93;;
1428;SDS011;708;51.442;7.016;2022-07-23T10:21:42;3.00;;;2.70;;
1428;SDS011;708;51.442;7.016;2022-07-23T10:24:18;4.37;;;2.83;;
1428;SDS011;708;51.442;7.016;2022-07-23T10:26:56;3.30;;;1.70;;
1428;SDS011;708;51.442;7.016;2022-07-23T10:29:35;2.90;;;1.90;;
1428;SDS011;708;51.442;7.016;2022-07-23T10:32:08;3.30;;;2.23;;
1428;SDS011;708;51.442;7.016;2022-07-23T10:34:49;4.00;;;3.13;;
1428;SDS011;708;51.442;7.016;2022-07-23T10:37:22;7.70;;;3.37;;
1428;SDS011;708;51.442;7.016;2022-07-23T10:40:04;4.00;;;2.43;;
1428;SDS011;708;51.442;7.016;2022-07-23T10:42:36;4.50;;;3.30;;
1428;SDS011;708;51.442;7.016;2022-07-23T10:45:15;4.63;;;2.43;;
1428;SDS011;708;51.442;7.016;2022-07-23T10:47:53;4.07;;;2.60;;
1428;SDS011;708;51.442;7.016;2022-07-23T10:50:22;6.20;;;3.53;;
1428;SDS011;708;51.442;7.016;2022-07-23T10:53:11;4.07;;;2.43;;
1428;SDS011;708;51.442;7.016;2022-07-23T10:55:46;4.77;;;3.37;;
1428;SDS011;708;51.442;7.016;2022-07-23T10:58:19;2.97;;;2.40;;
1428;SDS011;708;51.442;7.016;2022-07-23T11:00:48;4.30;;;2.67;;
1428;SDS011;708;51.442;7.016;2022-07-23T11:03:28;2.77;;;2.23;;
1428;SDS011;708;51.442;7.016;2022-07-23T11:06:01;4.10;;;3.40;;
1428;SDS011;708;51.442;7.016;2022-07-23T11:08:29;3.17;;;2.87;;
1428;SDS011;708;51.442;7.016;2022-07-23T11:11:08;4.53;;;3.60;;
1428;SDS011;708;51.442;7.016;2022-07-23T11:13:46;3.40;;;3.10;;
1428;SDS011;708;51.442;7.016;2022-07-23T11:16:23;3.43;;;2.50;;
1428;SDS011;708;51.442;7.016;2022-07-23T11:18:59;4.30;;;2.47;;
1428;SDS011;708;51.442;7.016;2022-07-23T11:21:51;4.97;;;2.80;;
1428;SDS011;708;51.442;7.016;2022-07-23T11:24:19;3.43;;;2.10;;
1428;SDS011;708;51.442;7.016;2022-07-23T11:32:22;4.10;;;2.80;;
1428;SDS011;708;51.442;7.016;2022-07-23T11:35:00;4.73;;;2.50;;
1428;SDS011;708;51.442;7.016;2022-07-23T11:37:35;5.50;;;2.60;;
1428;SDS011;708;51.442;7.016;2022-07-23T11:40:05;4.10;;;2.70;;
1428;SDS011;708;51.442;7.016;2022-07-23T11:42:37;2.37;;;2.10;;
1428;SDS011;708;51.442;7.016;2022-07-23T11:45:16;3.87;;;2.50;;
1428;SDS011;708;51.442;7.016;2022-07-23T11:47:43;4.47;;;2.60;;
1428;SDS011;708;51.442;7.016;2022-07-23T11:50:10;4.17;;;2.80;;
1428;SDS011;708;51.442;7.016;2022-07-23T11:52:38;5.53;;;3.17;;
1428;SDS011;708;51.442;7.016;2022-07-23T11:55:06;3.60;;;2.53;;
1428;SDS011;708;51.442;7.016;2022-07-23T11:57:34;4.87;;;3.20;;
1428;SDS011;708;51.442;7.016;2022-07-23T12:00:05;3.00;;;2.43;;
1428;SDS011;708;51.442;7.016;2022-07-23T12:02:34;4.37;;;2.83;;
1428;SDS011;708;51.442;7.016;2022-07-23T12:05:01;4.30;;;3.30;;
1428;SDS011;708;51.442;7.016;2022-07-23T12:07:32;3.90;;;2.80;;
1428;SDS011;708;51.442;7.016;2022-07-23T12:10:03;3.70;;;2.47;;
1428;SDS011;708;51.442;7.016;2022-07-23T12:12:37;3.13;;;2.20;;
1428;SDS011;708;51.442;7.016;2022-07-23T12:15:05;2.67;;;2.30;;
1428;SDS011;708;51.442;7.016;2022-07-23T12:17:33;3.90;;;2.50;;
1428;SDS011;708;51.442;7.016;2022-07-23T12:20:02;3.30;;;3.00;;
1428;SDS011;708;51.442;7.016;2022-07-23T12:22:34;2.93;;;2.13;;
1428;SDS011;708;51.442;7.016;2022-07-23T12:25:04;2.70;;;2.03;;
1428;SDS011;708;51.442;7.016;2022-07-23T12:27:33;5.17;;;2.20;;
1428;SDS011;708;51.442;7.016;2022-07-23T12:32:51;12.20;;;2.90;;
1428;SDS011;708;51.442;7.016;2022-07-23T12:35:19;2.93;;;2.63;;
1428;SDS011;708;51.442;7.016;2022-07-23T12:37:47;3.63;;;3.33;;
1428;SDS011;708;51.442;7.016;2022-07-23T12:40:24;4.77;;;3.93;;
1428;SDS011;708;51.442;7.016;2022-07-23T12:42:53;2.90;;;2.50;;
1428;SDS011;708;51.442;7.016;2022-07-23T12:45:23;5.97;;;3.50;;
1428;SDS011;708;51.442;7.016;2022-07-23T12:47:52;4.77;;;3.80;;
1428;SDS011;708;51.442;7.016;2022-07-23T12:50:31;3.53;;;2.83;;
1428;SDS011;708;51.442;7.016;2022-07-23T12:53:05;6.23;;;3.33;;
1428;SDS011;708;51.442;7.016;2022-07-23T12:55:34;4.90;;;3.00;;
1428;SDS011;708;51.442;7.016;2022-07-23T12:58:05;3.60;;;2.37;;
1428;SDS011;708;51.442;7.016;2022-07-23T13:03:27;4.50;;;2.80;;
1428;SDS011;708;51.442;7.016;2022-07-23T13:05:56;3.20;;;2.43;;
1428;SDS011;708;51.442;7.016;2022-07-23T13:08:24;3.20;;;2.87;;
1428;SDS011;708;51.442;7.016;2022-07-23T13:10:51;3.47;;;3.17;;
1428;SDS011;708;51.442;7.016;2022-07-23T13:13:22;3.53;;;2.97;;
1428;SDS011;708;51.442;7.016;2022-07-23T13:15:50;3.13;;;2.53;;
1428;SDS011;708;51.442;7.016;2022-07-23T13:18:18;3.20;;;2.90;;
1428;SDS011;708;51.442;7.016;2022-07-23T13:20:46;3.17;;;2.77;;
1428;SDS011;708;51.442;7.016;2022-07-23T13:23:17;2.63;;;2.03;;
1428;SDS011;708;51.442;7.016;2022-07-23T13:25:44;5.10;;;3.20;;
1428;SDS011;708;51.442;7.016;2022-07-23T13:28:12;3.97;;;2.80;;
1428;SDS011;708;51.442;7.016;2022-07-23T13:30:39;3.63;;;2.90;;
1428;SDS011;708;51.442;7.016;2022-07-23T13:33:07;3.00;;;2.63;;
1428;SDS011;708;51.442;7.016;2022-07-23T13:35:34;4.60;;;2.63;;
1428;SDS011;708;51.442;7.016;2022-07-23T13:38:03;3.47;;;2.50;;
1428;SDS011;708;51.442;7.016;2022-07-23T13:40:32;3.60;;;3.00;;
1428;SDS011;708;51.442;7.016;2022-07-23T13:42:59;5.07;;;2.50;;
1428;SDS011;708;51.442;7.016;2022-07-23T13:45:26;2.37;;;2.17;;
1428;SDS011;708;51.442;7.016;2022-07-23T13:47:53;3.60;;;3.23;;
1428;SDS011;708;51.442;7.016;2022-07-23T13:50:19;3.00;;;2.47;;
1428;SDS011;708;51.442;7.016;2022-07-23T13:52:46;3.80;;;3.00;;
1428;SDS011;708;51.442;7.016;2022-07-23T13:55:14;3.87;;;3.47;;
1428;SDS011;708;51.442;7.016;2022-07-23T13:57:41;3.40;;;2.77;;
1428;SDS011;708;51.442;7.016;2022-07-23T14:00:11;3.60;;;2.77;;
1428;SDS011;708;51.442;7.016;2022-07-23T14:02:38;3.10;;;2.77;;
1428;SDS011;708;51.442;7.016;2022-07-23T14:05:07;3.00;;;2.60;;
1428;SDS011;708;51.442;7.016;2022-07-23T14:07:36;2.60;;;2.33;;
1428;SDS011;708;51.442;7.016;2022-07-23T14:10:04;5.60;;;3.17;;
1428;SDS011;708;51.442;7.016;2022-07-23T14:12:34;3.60;;;3.30;;
1428;SDS011;708;51.442;7.016;2022-07-23T14:15:02;4.57;;;2.93;;
1428;SDS011;708;51.442;7.016;2022-07-23T14:17:29;3.27;;;2.70;;
1428;SDS011;708;51.442;7.016;2022-07-23T14:19:58;3.90;;;3.07;;
1428;SDS011;708;51.442;7.016;2022-07-23T14:22:25;5.70;;;3.50;;
1428;SDS011;708;51.442;7.016;2022-07-23T14:24:53;6.60;;;3.23;;
1428;SDS011;708;51.442;7.016;2022-07-23T14:27:22;4.60;;;3.13;;
1428;SDS011;708;51.442;7.016;2022-07-23T14:29:51;2.87;;;2.20;;
1428;SDS011;708;51.442;7.016;2022-07-23T14:32:18;5.70;;;2.97;;
1428;SDS011;708;51.442;7.016;2022-07-23T14:34:46;2.67;;;2.47;;
1428;SDS011;708;51.442;7.016;2022-07-23T14:37:13;3.00;;;2.70;;
1428;SDS011;708;51.442;7.016;2022-07-23T14:39:42;4.50;;;3.20;;
1428;SDS011;708;51.442;7.016;2022-07-23T14:42:10;3.30;;;2.80;;
1428;SDS011;708;51.442;7.016;2022-07-23T14:44:37;4.90;;;3.00;;
1428;SDS011;708;51.442;7.016;2022-07-23T14:47:05;3.47;;;2.83;;
1428;SDS011;708;51.442;7.016;2022-07-23T14:49:32;4.20;;;2.80;;
1428;SDS011;708;51.442;7.016;2022-07-23T14:52:00;3.67;;;3.23;;
1428;SDS011;708;51.442;7.016;2022-07-23T14:54:27;4.73;;;3.40;;
1428;SDS011;708;51.442;7.016;2022-07-23T14:56:55;5.60;;;3.60;;
1428;SDS011;708;51.442;7.016;2022-07-23T14:59:24;4.60;;;3.50;;
1428;SDS011;708;51.442;7.016;2022-07-23T15:01:51;3.50;;;2.77;;
1428;SDS011;708;51.442;7.016;2022-07-23T15:04:20;8.80;;;3.57;;
1428;SDS011;708;51.442;7.016;2022-07-23T15:06:50;3.23;;;2.57;;
1428;SDS011;708;51.442;7.016;2022-07-23T15:09:17;3.83;;;3.20;;
1428;SDS011;708;51.442;7.016;2022-07-23T15:11:45;4.33;;;3.40;;
1428;SDS011;708;51.442;7.016;2022-07-23T15:14:11;3.60;;;3.20;;
1428;SDS011;708;51.442;7.016;2022-07-23T15:16:38;3.97;;;2.90;;
1428;SDS011;708;51.442;7.016;2022-07-23T15:19:05;3.63;;;3.00;;
1428;SDS011;708;51.442;7.016;2022-07-23T15:21:34;4.00;;;3.60;;
1428;SDS011;708;51.442;7.016;2022-07-23T15:24:01;6.13;;;3.20;;
1428;SDS011;708;51.442;7.016;2022-07-23T15:26:28;2.83;;;2.50;;
1428;SDS011;708;51.442;7.016;2022-07-23T15:28:56;4.20;;;3.80;;
1428;SDS011;708;51.442;7.016;2022-07-23T15:31:23;4.03;;;3.30;;
1428;SDS011;708;51.442;7.016;2022-07-23T15:33:51;3.90;;;3.50;;